Tenants Harbor, Maine
Current Conditions -  °F | °C
As of 5:35 AM on Thursday 18 Dec 2014 (Local Time) from KRKD Reporting Station
Overcast Overcast  
Wind Chill: 29°   Ceiling: 1600
Heat Index: 34°   Visibility: 7mi
Dew Point: 32°   Wind: 6mph
Humidity: 93%   Direction: 280°W
Pressure: 29.59"   Gusts: NA
Location:  43.97°N, 69.21°W
Report Text: KRKD 181035Z AUTO 28005KT 7SM FEW008 OVC016 01/00 A2959 RMK AO1
Loading
Personal Weather Stations






























Interactive Weather Map New forecast layout! Learn more

10-Day Weather Forecast

Advertisements
Track Severe Weather on mobile